createdAt,value
2022-11-12T00:01:40.489Z,29.75
2022-11-12T00:04:26.350Z,27.17
2022-11-12T00:07:12.623Z,30.30
2022-11-12T00:09:58.867Z,33.92
2022-11-12T00:12:45.239Z,28.90
2022-11-12T00:15:31.196Z,30.73
2022-11-12T00:18:17.035Z,31.38
2022-11-12T00:21:03.015Z,29.05
2022-11-12T00:23:48.941Z,34.35
2022-11-12T00:26:35.131Z,28.52
2022-11-12T00:29:21.179Z,33.45
2022-11-12T00:32:08.049Z,25.33
2022-11-12T00:34:53.972Z,28.40
2022-11-12T00:37:39.755Z,32.55
2022-11-12T00:40:26.028Z,31.15
2022-11-12T00:43:11.963Z,29.73
2022-11-12T00:45:57.998Z,31.63
2022-11-12T00:48:43.945Z,32.05
2022-11-12T00:51:30.109Z,33.90
2022-11-12T00:54:16.200Z,27.83
2022-11-12T00:57:01.872Z,28.70
2022-11-12T00:59:47.756Z,29.42
2022-11-12T01:02:40.737Z,30.20
2022-11-12T01:05:47.595Z,30.05
2022-11-12T01:08:54.805Z,31.52
2022-11-12T01:11:59.405Z,33.50
2022-11-12T01:15:05.788Z,32.97
2022-11-12T01:18:10.296Z,35.90
2022-11-12T01:21:15.135Z,34.97
2022-11-12T01:24:20.036Z,30.38
2022-11-12T01:27:24.678Z,29.55
2022-11-12T01:30:29.413Z,31.90
2022-11-12T01:33:33.972Z,31.00
2022-11-12T01:36:39.561Z,30.45
2022-11-12T01:39:44.502Z,31.00
2022-11-12T01:42:53.678Z,30.98
2022-11-12T01:45:59.461Z,31.88
2022-11-12T01:49:12.332Z,37.72
2022-11-12T01:52:18.017Z,28.67
2022-11-12T01:55:25.222Z,27.25
2022-11-12T01:58:31.392Z,31.27
2022-11-12T02:01:37.170Z,31.70
2022-11-12T02:04:42.936Z,27.33
2022-11-12T02:07:48.429Z,28.95
2022-11-12T02:10:53.175Z,32.72
2022-11-12T02:14:03.530Z,34.17
2022-11-12T02:17:08.528Z,28.83
2022-11-12T02:20:13.550Z,27.63
2022-11-12T02:23:17.955Z,33.67
2022-11-12T02:26:22.959Z,28.10
2022-11-12T02:29:27.991Z,26.92
2022-11-12T02:32:32.776Z,28.88
2022-11-12T02:35:37.881Z,35.78
2022-11-12T02:38:42.684Z,31.52
2022-11-12T02:41:47.511Z,32.38
2022-11-12T02:44:52.273Z,32.05
2022-11-12T02:47:56.835Z,29.33
2022-11-12T02:51:02.135Z,33.20
2022-11-12T02:54:06.624Z,31.60
2022-11-12T02:57:11.541Z,33.10
2022-11-12T03:00:16.588Z,28.05
2022-11-12T03:03:21.553Z,24.98
2022-11-12T03:06:26.465Z,34.85
2022-11-12T03:09:31.396Z,29.38
2022-11-12T03:12:36.392Z,26.35
2022-11-12T03:15:41.064Z,28.25
2022-11-12T03:18:45.833Z,26.92
2022-11-12T03:21:50.702Z,22.33
2022-11-12T03:24:55.763Z,28.85
2022-11-12T03:28:03.616Z,22.70
2022-11-12T03:31:08.413Z,26.80
2022-11-12T03:34:13.502Z,26.42
2022-11-12T03:37:17.955Z,24.35
2022-11-12T03:40:22.711Z,26.58
2022-11-12T03:43:27.071Z,24.85
2022-11-12T03:46:32.090Z,28.83
2022-11-12T03:49:36.886Z,32.70
2022-11-12T03:52:50.074Z,22.60
2022-11-12T03:55:55.007Z,22.88
2022-11-12T03:58:59.612Z,28.52
2022-11-12T04:02:04.498Z,25.15
2022-11-12T04:05:47.905Z,25.38
2022-11-12T04:08:52.601Z,24.70
2022-11-12T04:12:17.343Z,26.48
2022-11-12T04:15:22.115Z,25.63
2022-11-12T04:18:45.444Z,24.38
2022-11-12T04:21:55.956Z,20.83
2022-11-12T04:25:19.399Z,23.70
2022-11-12T04:31:29.060Z,25.58
2022-11-12T04:34:34.854Z,28.67
2022-11-12T04:37:46.362Z,27.77
2022-11-12T04:41:09.581Z,27.10
2022-11-12T04:44:32.680Z,25.30
2022-11-12T04:47:39.558Z,26.02
2022-11-12T04:50:46.672Z,26.13
2022-11-12T04:53:51.327Z,23.52
2022-11-12T04:56:56.056Z,24.50
2022-11-12T05:00:00.977Z,21.98
2022-11-12T05:03:05.689Z,21.67
2022-11-12T05:06:30.458Z,18.30
2022-11-12T05:09:35.895Z,19.42
2022-11-12T05:12:41.427Z,18.95
2022-11-12T05:15:46.423Z,18.60
2022-11-12T05:18:51.080Z,18.70
2022-11-12T05:22:13.918Z,19.88
2022-11-12T05:25:32.183Z,18.70
2022-11-12T05:28:37.272Z,18.95
2022-11-12T05:31:42.201Z,22.92
2022-11-12T05:34:47.177Z,17.83
2022-11-12T05:37:51.662Z,19.33
2022-11-12T05:40:56.542Z,20.73
2022-11-12T05:44:01.223Z,15.32
2022-11-12T05:47:06.113Z,14.40
2022-11-12T05:50:10.897Z,19.55
2022-11-12T05:53:15.725Z,17.02
2022-11-12T05:56:20.480Z,16.38
2022-11-12T05:59:25.364Z,17.45
2022-11-12T06:02:30.294Z,17.23
2022-11-12T06:05:35.615Z,17.80
2022-11-12T06:08:40.795Z,18.20
2022-11-12T06:11:45.524Z,17.67
2022-11-12T06:14:50.268Z,16.60
2022-11-12T06:17:55.243Z,17.83
2022-11-12T06:21:20.091Z,15.52
2022-11-12T06:24:24.632Z,14.98
2022-11-12T06:27:29.416Z,19.65
2022-11-12T06:30:34.252Z,20.30
2022-11-12T06:33:39.115Z,18.83
2022-11-12T06:36:43.831Z,19.52
2022-11-12T06:39:48.910Z,22.90
2022-11-12T06:42:58.333Z,21.80
2022-11-12T06:46:05.511Z,20.00
2022-11-12T06:49:10.144Z,20.02
2022-11-12T06:52:16.847Z,23.58
2022-11-12T06:55:21.971Z,17.35
2022-11-12T06:58:28.386Z,18.52
2022-11-12T07:01:33.526Z,19.92
2022-11-12T07:04:38.325Z,18.80
2022-11-12T07:07:43.063Z,18.05
2022-11-12T07:10:47.805Z,19.58
2022-11-12T07:13:52.515Z,17.98
2022-11-12T07:16:57.603Z,17.33
2022-11-12T07:20:04.105Z,19.90
2022-11-12T07:23:08.939Z,17.80
2022-11-12T07:26:18.940Z,16.02
2022-11-12T07:29:42.752Z,15.43
2022-11-12T07:32:51.992Z,11.30
2022-11-12T07:36:00.302Z,13.90
2022-11-12T07:39:05.004Z,14.15
2022-11-12T07:42:09.925Z,12.63
2022-11-12T07:45:14.891Z,12.18
2022-11-12T07:48:19.624Z,11.15
2022-11-12T07:51:26.435Z,10.80
2022-11-12T07:54:31.010Z,8.35
2022-11-12T07:57:36.068Z,9.60
2022-11-12T08:00:40.768Z,9.68
2022-11-12T08:03:45.708Z,9.60
2022-11-12T08:06:50.726Z,10.57
2022-11-12T08:09:55.534Z,10.02
2022-11-12T08:13:00.367Z,11.63
2022-11-12T08:16:05.438Z,9.05
2022-11-12T08:19:10.276Z,11.75
2022-11-12T08:22:15.422Z,11.50
2022-11-12T08:25:20.136Z,7.00
2022-11-12T08:28:25.097Z,6.68
2022-11-12T08:31:29.979Z,7.50
2022-11-12T08:34:36.292Z,7.40
2022-11-12T08:37:41.231Z,6.28
2022-11-12T08:40:46.264Z,6.15
2022-11-12T08:43:51.088Z,8.95
2022-11-12T08:46:55.892Z,8.65
2022-11-12T08:50:00.455Z,6.97
2022-11-12T08:53:07.892Z,7.53
2022-11-12T08:56:12.819Z,8.15
2022-11-12T08:59:17.685Z,8.68
2022-11-12T09:02:22.580Z,6.93
2022-11-12T09:05:27.981Z,7.18
2022-11-12T09:08:34.824Z,6.22
2022-11-12T09:11:39.499Z,7.63
2022-11-12T09:14:44.024Z,7.88
2022-11-12T09:17:49.197Z,8.48
2022-11-12T09:20:54.007Z,6.63
2022-11-12T09:23:58.548Z,5.90
2022-11-12T09:27:03.441Z,12.00
2022-11-12T09:30:08.501Z,10.82
2022-11-12T09:33:18.609Z,10.88
2022-11-12T09:36:23.167Z,6.85
2022-11-12T09:39:27.856Z,6.65
2022-11-12T09:42:34.256Z,9.02
2022-11-12T09:45:39.024Z,7.75
2022-11-12T09:48:48.756Z,5.85
2022-11-12T09:52:01.672Z,7.47
2022-11-12T09:55:08.860Z,5.18
2022-11-12T09:58:14.613Z,7.70
2022-11-12T10:01:38.050Z,6.32
2022-11-12T10:04:45.963Z,4.78
2022-11-12T10:08:06.067Z,5.22
2022-11-12T10:11:20.839Z,5.10
2022-11-12T10:14:44.315Z,5.40
2022-11-12T10:18:00.279Z,5.82
2022-11-12T10:21:35.948Z,9.35
2022-11-12T10:24:42.208Z,5.20
2022-11-12T10:27:47.066Z,6.65
2022-11-12T10:30:54.258Z,6.22
2022-11-12T10:34:14.700Z,7.43
2022-11-12T10:37:57.847Z,4.72
2022-11-12T10:41:18.654Z,10.05
2022-11-12T10:44:26.843Z,8.23
2022-11-12T10:47:43.076Z,6.60
2022-11-12T10:50:47.724Z,7.18
2022-11-12T10:53:52.683Z,5.55
2022-11-12T10:56:57.763Z,7.03
2022-11-12T11:00:12.718Z,12.13
2022-11-12T11:03:33.216Z,5.18
2022-11-12T11:06:37.897Z,5.25
2022-11-12T11:09:56.658Z,12.02
2022-11-12T11:13:22.195Z,5.05
2022-11-12T11:16:28.923Z,5.68
2022-11-12T11:19:41.603Z,7.47
2022-11-12T11:22:47.219Z,6.78
2022-11-12T11:25:54.950Z,6.13
2022-11-12T11:29:08.985Z,6.22
2022-11-12T11:32:41.774Z,7.80
2022-11-12T11:35:56.215Z,7.35
2022-11-12T11:39:26.016Z,5.95
2022-11-12T11:42:39.573Z,8.32
2022-11-12T11:46:04.266Z,8.32
2022-11-12T11:49:27.531Z,9.10
2022-11-12T11:52:52.124Z,8.20
2022-11-12T11:55:59.151Z,8.20
2022-11-12T11:59:33.257Z,12.98
2022-11-12T12:03:11.820Z,8.27
2022-11-12T12:06:30.707Z,6.63
2022-11-12T12:09:45.019Z,9.20
2022-11-12T12:13:14.454Z,7.97
2022-11-12T12:16:24.756Z,6.15
2022-11-12T12:19:50.405Z,7.13
2022-11-12T12:23:03.277Z,8.77
2022-11-12T12:26:47.162Z,13.80
2022-11-12T12:29:59.473Z,8.43
2022-11-12T12:33:16.132Z,10.98
2022-11-12T12:36:31.020Z,12.95
2022-11-12T12:39:47.840Z,8.50
2022-11-12T12:43:01.872Z,8.35
2022-11-12T12:46:10.105Z,7.88
2022-11-12T12:49:21.406Z,9.77
2022-11-12T12:52:26.140Z,9.90
2022-11-12T12:55:42.384Z,10.48
2022-11-12T12:58:47.287Z,8.75
2022-11-12T13:02:00.499Z,10.90
2022-11-12T13:05:05.814Z,10.98
2022-11-12T13:08:13.504Z,11.63
2022-11-12T13:12:00.269Z,10.95
2022-11-12T13:15:46.666Z,12.52
2022-11-12T13:18:51.331Z,15.07
2022-11-12T13:22:17.889Z,8.45
2022-11-12T13:25:24.930Z,10.60
2022-11-12T13:28:29.948Z,12.85
2022-11-12T13:31:34.985Z,9.30
2022-11-12T13:34:39.584Z,8.18
2022-11-12T13:37:45.471Z,11.55
2022-11-12T13:41:09.658Z,9.27
2022-11-12T13:44:16.208Z,7.20
2022-11-12T13:47:24.674Z,10.07
2022-11-12T13:50:29.592Z,7.63
2022-11-12T13:53:35.529Z,8.25
2022-11-12T13:56:41.214Z,7.00
2022-11-12T13:59:49.928Z,7.53
2022-11-12T14:02:56.647Z,6.03
2022-11-12T14:06:26.730Z,7.85
2022-11-12T14:10:12.300Z,9.52
2022-11-12T14:13:20.104Z,5.50
2022-11-12T14:16:27.945Z,7.43
2022-11-12T14:19:58.620Z,7.40
2022-11-12T14:23:13.916Z,11.38
2022-11-12T14:26:38.445Z,10.27
2022-11-12T14:29:43.901Z,14.65
2022-11-12T14:33:00.494Z,9.98
2022-11-12T14:36:15.987Z,13.57
2022-11-12T14:39:20.703Z,10.27
2022-11-12T14:42:35.283Z,12.60
2022-11-12T14:49:40.698Z,12.98
2022-11-12T14:52:50.882Z,11.05
2022-11-12T14:55:57.051Z,11.10
2022-11-12T14:59:01.934Z,10.52
2022-11-12T15:05:55.021Z,6.60
2022-11-12T15:09:00.372Z,12.38
2022-11-12T15:12:11.398Z,10.90
2022-11-12T15:15:23.826Z,11.70
2022-11-12T15:18:30.409Z,16.60
2022-11-12T15:21:35.892Z,11.50
2022-11-12T15:24:44.007Z,10.52
2022-11-12T15:27:49.118Z,10.15
2022-11-12T15:31:00.962Z,9.55
2022-11-12T15:34:24.022Z,8.77
2022-11-12T15:37:31.836Z,7.72
2022-11-12T15:40:47.074Z,10.32
2022-11-12T15:43:52.521Z,8.88
2022-11-12T15:46:59.141Z,8.00
2022-11-12T15:50:14.496Z,11.20
2022-11-12T15:53:19.962Z,9.88
2022-11-12T15:56:24.727Z,10.55
2022-11-12T15:59:29.532Z,13.68
2022-11-12T16:02:34.272Z,13.20
2022-11-12T16:05:39.777Z,11.85
2022-11-12T16:08:44.678Z,9.70
2022-11-12T16:11:50.394Z,9.93
2022-11-12T16:14:55.784Z,8.52
2022-11-12T16:18:00.660Z,11.27
2022-11-12T16:21:05.873Z,13.60
2022-11-12T16:24:10.528Z,10.25
2022-11-12T16:27:16.613Z,9.55
2022-11-12T16:30:27.377Z,8.90
2022-11-12T16:33:31.808Z,11.40
2022-11-12T16:36:36.916Z,9.20
2022-11-12T16:39:42.177Z,10.20
2022-11-12T16:42:46.973Z,10.07
2022-11-12T16:45:52.125Z,12.02
2022-11-12T16:48:56.986Z,14.30
2022-11-12T16:52:01.803Z,22.10
2022-11-12T16:55:07.015Z,21.83
2022-11-12T16:58:13.920Z,26.42
2022-11-12T17:01:30.653Z,26.00
2022-11-12T17:04:39.368Z,39.63
2022-11-12T17:07:44.167Z,34.30
2022-11-12T17:10:48.929Z,38.40
2022-11-12T17:13:53.610Z,34.85
2022-11-12T17:16:58.542Z,35.55
2022-11-12T17:20:04.219Z,32.05
2022-11-12T17:23:09.064Z,21.67
2022-11-12T17:26:19.462Z,18.25
2022-11-12T17:29:24.174Z,21.98
2022-11-12T17:32:29.186Z,19.42
2022-11-12T17:35:34.525Z,24.73
2022-11-12T17:38:39.941Z,22.23
2022-11-12T17:41:44.927Z,25.45
2022-11-12T17:44:49.600Z,21.23
2022-11-12T17:47:54.412Z,15.95
2022-11-12T17:51:11.920Z,15.27
2022-11-12T17:54:17.292Z,13.80
2022-11-12T17:57:22.628Z,12.32
2022-11-12T18:00:28.368Z,15.07
2022-11-12T18:03:33.345Z,13.73
2022-11-12T18:06:37.958Z,13.55
2022-11-12T18:09:42.570Z,14.82
2022-11-12T18:12:47.198Z,18.55
2022-11-12T18:15:51.938Z,13.85
2022-11-12T18:18:57.447Z,15.40
2022-11-12T18:22:02.415Z,13.93
2022-11-12T18:25:07.580Z,19.73
2022-11-12T18:28:12.509Z,18.27
2022-11-12T18:31:17.591Z,15.98
2022-11-12T18:34:22.136Z,23.83
2022-11-12T18:37:26.828Z,20.55
2022-11-12T18:40:31.795Z,39.25
2022-11-12T18:43:37.473Z,39.55
2022-11-12T18:46:42.148Z,36.40
2022-11-12T18:49:46.942Z,33.15
2022-11-12T18:52:51.787Z,34.95
2022-11-12T18:56:00.277Z,39.60
2022-11-12T18:59:04.908Z,36.25
2022-11-12T19:02:11.108Z,31.33
2022-11-12T19:05:15.751Z,25.33
2022-11-12T19:08:20.512Z,33.00
2022-11-12T19:11:25.280Z,38.83
2022-11-12T19:14:30.580Z,36.90
2022-11-12T19:17:35.283Z,31.08
2022-11-12T19:20:39.767Z,30.15
2022-11-12T19:23:46.326Z,27.98
2022-11-12T19:26:53.728Z,23.58
2022-11-12T19:30:02.919Z,18.73
2022-11-12T19:33:08.640Z,20.50
2022-11-12T19:36:15.654Z,28.08
2022-11-12T19:39:20.244Z,24.02
2022-11-12T19:42:25.141Z,22.83
2022-11-12T19:45:30.112Z,21.40
2022-11-12T19:48:35.571Z,17.48
2022-11-12T19:51:40.289Z,14.43
2022-11-12T19:54:45.616Z,19.95
2022-11-12T19:57:50.495Z,25.27
2022-11-12T20:00:55.300Z,26.63
2022-11-12T20:04:00.160Z,24.10
2022-11-12T20:07:04.903Z,30.08
2022-11-12T20:10:10.126Z,33.05
2022-11-12T20:13:14.492Z,30.10
2022-11-12T20:16:24.862Z,40.47
2022-11-12T20:19:30.262Z,38.55
2022-11-12T20:22:35.932Z,36.83
2022-11-12T20:25:40.941Z,42.78
2022-11-12T20:28:45.883Z,31.30
2022-11-12T20:31:50.715Z,25.60
2022-11-12T20:34:55.900Z,24.30
2022-11-12T20:38:00.643Z,26.80
2022-11-12T20:41:06.573Z,23.65
2022-11-12T20:44:11.595Z,24.05
2022-11-12T20:47:16.332Z,25.50
2022-11-12T20:50:21.150Z,26.25
2022-11-12T20:53:25.755Z,25.90
2022-11-12T20:56:31.315Z,23.63
2022-11-12T20:59:41.135Z,27.05
2022-11-12T21:02:45.819Z,22.13
2022-11-12T21:05:57.602Z,26.55
2022-11-12T21:09:02.964Z,15.60
2022-11-12T21:12:08.064Z,14.63
2022-11-12T21:15:12.679Z,18.58
2022-11-12T21:18:17.738Z,20.92
2022-11-12T21:21:22.474Z,22.38
2022-11-12T21:24:27.177Z,21.75
2022-11-12T21:27:32.544Z,35.13
2022-11-12T21:30:36.781Z,33.55
2022-11-12T21:33:41.845Z,29.65
2022-11-12T21:36:46.516Z,32.90
2022-11-12T21:39:51.352Z,23.60
2022-11-12T21:42:56.151Z,20.33
2022-11-12T21:46:01.136Z,17.92
2022-11-12T21:49:05.730Z,16.90
2022-11-12T21:52:12.993Z,20.40
2022-11-12T21:55:17.515Z,18.63
2022-11-12T21:58:22.432Z,19.90
2022-11-12T22:01:29.478Z,20.63
2022-11-12T22:04:34.080Z,16.88
2022-11-12T22:07:38.671Z,16.30
2022-11-12T22:10:43.256Z,16.13
2022-11-12T22:13:48.035Z,19.80
2022-11-12T22:16:52.708Z,20.63
2022-11-12T22:19:57.268Z,19.88
2022-11-12T22:23:01.903Z,17.63
2022-11-12T22:26:18.063Z,14.82
2022-11-12T22:29:22.811Z,16.38
2022-11-12T22:32:27.437Z,17.83
2022-11-12T22:35:33.112Z,20.85
2022-11-12T22:38:42.574Z,27.70
2022-11-12T22:41:47.063Z,17.73
2022-11-12T22:44:51.856Z,18.80
2022-11-12T22:47:59.345Z,18.80
2022-11-12T22:51:07.311Z,18.83
2022-11-12T22:54:15.683Z,15.27
2022-11-12T22:57:20.289Z,18.85
2022-11-12T23:00:30.562Z,15.13
2022-11-12T23:03:35.818Z,17.92
2022-11-12T23:06:40.493Z,17.60
2022-11-12T23:09:45.300Z,14.70
2022-11-12T23:12:50.014Z,15.23
2022-11-12T23:15:54.860Z,16.48
2022-11-12T23:18:59.775Z,21.70
2022-11-12T23:22:07.822Z,13.38
2022-11-12T23:25:12.895Z,13.70
2022-11-12T23:28:17.556Z,18.40
2022-11-12T23:31:28.048Z,14.90
2022-11-12T23:34:32.766Z,19.63
2022-11-12T23:37:37.259Z,17.48
2022-11-12T23:40:42.139Z,15.43
2022-11-12T23:43:47.154Z,17.85
2022-11-12T23:46:51.923Z,13.73
2022-11-12T23:49:56.824Z,17.00
2022-11-12T23:53:01.468Z,14.95
2022-11-12T23:56:09.334Z,15.73
2022-11-12T23:59:14.173Z,14.98
